Date,TemperatureHighF,TemperatureAvgF,TemperatureLowF,DewpointHighF,DewpointAvgF,DewpointLowF,HumidityHigh,HumidityAvg,HumidityLow,PressureMaxIn,PressureMinIn,WindSpeedMaxMPH,WindSpeedAvgMPH,GustSpeedMaxMPH,PrecipitationSumIn
2012-6-8,50,50,50,-100,-100,-100,0,0,100,29.71,29.71,25,25,0,0.00
2012-6-9,48,48,48,-100,-100,-100,0,0,100,30.18,30.18,9,9,0,0.00
2012-6-12,52,52,52,45,45,45,77,77,77,30.15,30.15,28,28,0,0.00
2012-6-13,48,48,48,44,44,44,84,84,84,30.12,30.12,10,10,0,0.00
2012-6-14,50,50,50,-100,-100,-100,0,0,100,30.12,30.12,17,17,0,0.00
2012-6-15,50,49,48,43,2,-100,76,54,76,30.09,29.56,28,22,0,0.00
2012-6-16,50,49,48,47,-26,-100,87,54,87,29.71,29.50,29,20,0,0.00
2012-6-17,50,50,50,47,47,47,87,87,87,29.96,29.88,22,20,0,0.00
2012-6-19,55,52,50,47,-14,-100,87,46,69,30.22,29.93,15,12,0,0.00
2012-6-20,61,53,49,53,-13,-100,87,48,75,30.21,30.02,6,2,0,0.00
2012-6-21,61,58,57,-100,-100,-100,0,0,100,30.09,30.06,2,2,0,0.00
2012-6-22,70,66,63,59,-39,-100,74,25,59,29.85,29.83,10,7,0,0.00
2012-6-23,63,56,52,49,-21,-100,83,42,73,29.91,29.83,28,20,0,0.00
2012-6-24,63,55,51,50,2,-100,83,53,63,30.09,29.91,15,8,0,0.00
2012-6-26,52,52,49,49,22,-100,88,72,88,29.96,29.89,15,11,0,0.00
2012-6-27,52,52,52,47,-67,-100,85,19,85,29.90,29.86,6,3,0,0.00
2012-6-28,54,53,52,39,-54,-100,56,19,56,29.86,29.78,6,3,0,0.00
2012-7-3,57,54,53,49,-55,-100,83,24,78,29.97,29.77,28,17,0,0.00
2012-7-4,52,52,51,-100,-100,-100,0,0,100,30.03,30.02,2,2,0,0.00
2012-7-7,54,54,54,-100,-100,-100,0,0,100,30.12,30.12,10,10,0,0.00
2012-7-10,58,55,54,-100,-100,-100,0,0,100,30.35,30.21,22,9,0,0.00
2012-7-11,52,52,52,-100,-100,-100,0,0,100,30.27,30.27,2,2,0,0.00
2012-7-13,54,54,54,-100,-100,-100,0,0,100,30.18,30.18,10,10,0,0.00
2012-7-14,59,59,59,-100,-100,-100,0,0,100,30.17,30.17,22,22,0,0.00
2012-7-15,57,57,57,-100,-100,-100,0,0,100,30.01,30.01,28,28,0,0.00
2012-7-17,54,53,52,-100,-100,-100,0,0,100,30.08,29.80,34,32,0,0.00
2012-7-18,53,53,53,-100,-100,-100,0,0,100,30.05,30.05,2,2,0,0.00
2012-7-21,59,59,59,-100,-100,-100,0,0,100,30.20,30.20,10,10,0,0.00
2012-7-24,58,58,58,-100,-100,-100,0,0,100,30.20,30.20,10,10,0,0.00
2012-7-25,58,57,56,58,57,56,100,100,100,30.21,30.19,6,6,0,0.00
2012-7-27,59,59,59,59,59,59,100,100,100,30.02,30.02,11,11,0,0.00
2012-7-28,58,56,56,58,-48,-100,100,33,100,30.18,30.16,28,14,0,0.00
2012-7-29,57,57,57,57,14,-100,100,73,100,30.24,30.17,17,13,0,0.00
2012-7-30,61,61,61,61,61,61,100,100,100,30.18,30.18,17,17,0,0.00
2012-7-31,60,57,56,57,57,56,100,97,89,30.22,29.96,34,24,0,0.00
2012-8-1,75,61,56,54,26,-100,79,57,30,30.18,30.02,11,5,0,0.00
2012-8-2,61,59,56,58,36,-100,92,78,84,30.15,30.08,34,22,0,0.00
2012-8-3,56,55,53,56,34,-100,100,85,93,30.15,30.09,28,19,0,0.00
2012-8-4,67,60,53,66,55,53,100,84,67,30.17,30.06,15,11,0,0.00
2012-8-5,65,60,56,64,58,52,100,94,82,30.05,29.92,29,19,0,0.00
2012-8-6,62,59,56,61,58,55,100,98,89,30.14,29.99,28,22,0,0.00
2012-8-7,71,62,56,70,61,53,100,94,88,30.11,29.92,22,11,0,0.00
2012-8-8,65,57,52,63,54,46,100,91,80,29.96,29.84,29,11,0,0.00
2012-8-9,58,57,55,55,54,49,100,89,78,30.21,29.88,34,30,0,0.00
2012-8-10,62,56,53,60,55,50,100,95,76,30.24,30.09,23,11,0,0.00
2012-8-11,61,58,55,59,57,54,100,97,91,30.18,30.13,22,9,0,0.00
2012-8-12,78,62,59,77,62,58,100,99,85,30.18,30.02,34,15,0,0.00
2012-8-13,65,58,56,65,58,53,100,96,87,30.07,30.03,34,26,0,0.00
2012-8-14,59,53,13,59,19,-100,100,76,100,30.18,30.05,28,19,0,0.00
2012-8-15,67,56,53,67,-20,-100,100,47,77,30.24,30.12,20,10,0,0.00
2012-8-16,59,59,58,-100,-100,-100,0,0,100,30.11,30.09,11,7,0,0.00
2012-8-17,59,56,54,57,4,-100,100,67,100,30.06,29.89,22,10,0,0.00
2012-8-18,66,60,54,62,26,-100,100,69,65,29.97,29.91,10,8,0,0.00
2012-8-19,62,59,56,58,-22,-100,100,46,86,30.03,29.91,16,8,0,0.00
2012-8-20,65,62,60,56,-8,-100,86,44,62,30.06,30.00,11,10,0,0.00
2012-8-21,62,58,56,59,-22,-100,100,47,84,30.07,29.94,17,11,0,0.00
2012-8-22,57,54,53,54,4,-100,100,61,71,29.96,29.93,17,6,0,0.00
2012-8-23,65,58,56,54,-79,-100,68,9,68,29.96,29.91,22,18,0,0.00
2012-8-24,60,52,53,57,10,-100,100,65,67,30.08,30.02,13,-63,0,0.00
2012-8-25,67,60,54,65,5,-100,100,59,76,30.08,29.85,17,-100,0,0.00
2012-8-26,61,52,54,57,-60,-100,98,24,83,29.86,29.74,26,-60,0,0.00
2012-8-27,63,59,57,59,9,-100,100,57,69,30.10,29.94,23,11,0,0.00
2012-8-28,65,58,56,58,12,-100,98,66,68,30.03,29.89,21,16,0,0.00
2012-8-29,56,56,56,-100,-100,-100,0,0,100,29.84,29.83,21,19,0,0.00
2012-8-30,57,57,56,-100,-100,-100,0,0,100,30.02,30.01,6,3,0,0.00
2012-8-31,54,54,53,-100,-100,-100,0,0,100,30.06,30.05,11,9,0,0.00
2012-9-1,56,56,56,-100,-100,-100,0,0,100,30.06,30.06,31,31,0,0.00
2012-9-2,60,57,56,51,-38,-100,82,33,81,30.24,30.06,34,19,0,0.00
2012-9-3,58,57,56,-100,-100,-100,0,0,100,30.19,30.19,20,17,0,0.00
2012-9-4,60,58,57,54,-6,-100,88,51,77,30.37,30.21,32,14,0,0.00
2012-9-5,56,56,56,-100,-100,-100,0,0,100,30.36,30.35,17,16,0,0.00
2012-9-6,55,55,55,-100,-100,-100,0,0,100,30.13,30.12,23,21,0,0.00
2012-9-7,53,52,51,49,-50,-100,85,28,85,30.39,30.04,30,20,0,0.00
2012-9-8,52,52,52,-100,-100,-100,0,0,100,30.05,30.05,17,17,0,0.00
2012-9-9,56,56,56,49,49,49,75,75,75,29.89,29.89,14,14,0,0.00
2012-9-10,54,54,54,-100,-100,-100,0,0,100,29.93,29.93,15,15,0,0.00
2012-9-11,77,69,61,56,-48,-100,60,20,60,30.32,30.08,34,27,0,0.00
2012-9-12,56,56,56,49,-15,-100,77,44,77,30.03,29.97,32,22,0,0.00
2012-9-16,67,66,65,61,-20,-100,85,42,85,29.97,29.96,8,8,0,0.00
2012-9-17,65,61,57,64,-67,-100,95,19,95,30.08,30.06,16,12,0,0.00
2012-9-20,63,60,57,53,-24,-100,85,42,85,30.11,30.08,31,24,0,0.00
2012-9-21,67,66,65,58,-37,-100,73,29,73,29.91,29.90,14,14,0,0.00
2012-9-22,70,70,69,-100,-100,-100,0,0,100,29.91,29.89,10,7,0,0.00
2012-9-23,68,68,68,-100,-100,-100,0,0,100,29.91,29.89,17,13,0,0.00
2012-9-24,63,60,57,57,7,-100,87,53,71,29.97,29.95,20,15,0,0.00
2012-9-25,59,59,59,54,54,54,83,83,83,29.93,29.93,11,11,0,0.00
2012-9-27,64,60,56,56,6,-100,100,59,68,29.94,29.89,11,11,0,0.00
2012-9-28,68,66,64,59,-20,-100,81,40,81,29.93,29.88,16,12,0,0.00
2012-9-29,70,70,69,62,-39,-100,77,29,77,29.96,29.89,15,14,0,0.00
2012-9-30,69,66,64,66,63,60,87,86,86,29.96,29.93,16,12,0,0.00
2012-10-1,63,62,61,63,61,57,98,95,87,29.91,29.86,22,18,0,0.00
2012-10-4,64,64,64,-100,-100,-100,0,0,100,30.10,30.10,15,15,0,0.00
2012-10-7,63,63,63,-100,-100,-100,0,0,100,29.96,29.96,34,34,0,0.00
2012-10-8,61,61,61,-100,-100,-100,0,0,100,30.06,30.06,6,6,0,0.00
2012-10-9,61,61,61,-100,-100,-100,0,0,100,30.06,30.06,6,6,0,0.00
2012-10-11,59,59,59,58,58,58,98,98,98,29.95,29.95,17,17,0,0.00
2012-10-14,66,66,66,-100,-100,-100,0,0,100,29.97,29.97,33,33,0,0.00
2012-10-15,68,66,66,65,-10,-100,91,48,82,30.15,29.97,33,30,0,0.00
2012-10-16,70,68,66,-100,-100,-100,0,0,100,30.24,30.17,29,25,0,0.00
2012-10-17,75,72,70,64,16,-100,74,51,69,30.16,30.11,22,17,0,0.00
2012-10-18,75,74,73,71,23,-100,91,59,69,30.15,30.08,10,9,0,0.00
2012-10-19,81,80,79,76,30,-100,85,61,77,30.04,30.00,23,18,0,0.00
2012-10-20,75,75,75,-100,-100,-100,0,0,100,30.03,30.03,23,23,0,0.00
2012-10-21,75,75,75,-100,-100,-100,0,0,100,29.99,29.99,29,29,0,0.00
2012-10-22,75,75,75,-100,-100,-100,0,0,100,30.04,30.04,29,29,0,0.00
2012-10-23,77,76,75,74,37,-100,91,69,83,30.04,29.74,29,19,0,0.00
2012-10-24,73,73,72,68,30,-100,83,62,75,30.09,30.00,25,20,0,0.00
2012-10-25,70,69,68,67,-16,-100,91,46,91,30.24,30.14,23,20,0,0.00
2012-10-26,64,64,64,-100,-100,-100,0,0,100,30.13,30.13,38,38,0,0.00
2012-10-27,68,68,68,-100,-100,-100,0,0,100,29.86,29.86,21,21,0,0.00
2012-10-28,66,66,66,-100,-100,-100,0,0,100,29.89,29.89,2,2,0,0.00
2012-10-29,81,74,70,81,-5,-100,100,44,61,29.97,29.89,17,13,0,0.00
2012-10-30,81,78,75,73,22,-100,83,57,77,29.88,29.80,14,10,0,0.00
2012-10-31,77,77,77,-100,-100,-100,0,0,100,29.83,29.83,18,18,0,0.00
2012-11-1,79,79,79,-100,-100,-100,0,0,100,29.83,29.83,9,9,0,0.00
2012-11-2,70,70,70,-100,-100,-100,0,0,100,29.83,29.83,31,31,0,0.00
2012-11-3,70,66,64,67,-1,-100,91,51,81,29.95,29.80,23,19,0,0.00
2012-11-5,86,77,70,77,66,61,91,70,43,29.93,29.89,17,14,0,0.00
2012-11-6,82,76,70,78,68,62,87,75,64,29.88,29.80,18,11,0,0.00
2012-11-7,82,80,72,78,75,63,92,86,75,29.87,29.80,14,8,0,0.00
2012-11-8,79,79,77,74,71,68,84,78,70,29.88,29.80,11,8,0,0.00
2012-11-9,73,73,73,68,67,65,83,80,75,29.89,29.87,23,22,0,0.00
2012-11-10,72,66,61,64,55,44,90,69,53,30.09,29.90,29,23,0,0.00
2012-11-11,61,61,57,55,42,34,80,51,37,30.22,30.05,16,15,0,0.00
2012-11-12,73,66,61,56,30,-100,66,46,31,30.15,29.91,28,14,0,0.00
2012-11-13,81,73,68,65,41,-100,68,53,52,29.93,29.80,21,11,0,0.00
2012-11-14,78,76,73,69,37,-100,73,56,62,29.86,29.82,11,10,0,0.00
2012-11-15,77,76,73,67,37,-100,76,56,55,29.93,29.87,17,14,0,0.00
2012-11-16,82,75,72,72,65,62,83,72,68,29.93,29.82,15,10,0,0.00
2012-11-17,72,68,64,64,46,-100,82,72,73,30.03,29.83,23,13,0,0.00
2012-11-18,63,63,63,53,21,-100,71,56,71,30.12,30.03,14,12,0,0.00
2012-11-19,73,67,61,65,50,-100,91,69,59,30.12,29.95,22,17,0,0.00
2012-11-20,81,74,70,74,65,60,100,74,56,29.96,29.80,24,19,0,0.00
2012-11-21,77,75,73,70,67,59,83,75,61,29.97,29.90,8,5,0,0.00
2012-11-22,79,77,77,69,68,66,77,73,69,29.97,29.95,15,14,0,0.00
2012-11-23,77,74,72,66,63,60,75,71,60,30.05,29.92,17,11,0,0.00
2012-11-24,72,65,61,62,46,-100,89,73,66,30.04,29.94,21,12,0,0.00
2012-11-25,61,59,59,58,55,52,89,84,78,30.02,29.96,13,10,0,0.00
2012-11-26,79,67,59,74,57,51,90,71,58,30.06,29.99,22,12,0,0.00
2012-11-27,88,74,66,69,61,55,76,65,42,30.13,29.97,22,12,0,0.00
2012-11-28,81,77,73,70,66,64,74,69,61,30.06,29.98,26,16,0,0.00
2012-11-29,79,76,75,68,67,65,75,72,62,30.06,30.02,23,13,0,0.00
2012-11-30,77,75,72,66,63,59,82,67,54,30.00,29.93,25,17,0,0.00
2012-12-1,71,67,63,65,61,56,86,79,69,30.13,29.99,32,27,0,0.00
2012-12-2,63,62,62,60,32,-100,95,73,79,30.15,30.10,23,14,0,0.00
2012-12-3,74,66,63,65,60,56,89,81,73,30.16,30.06,24,21,0,0.00
2012-12-4,77,72,67,69,63,59,81,71,54,30.06,29.96,18,13,0,0.00
2012-12-5,77,74,73,69,66,65,75,74,74,29.97,29.94,15,11,0,0.00
2012-12-6,76,70,74,69,54,-100,79,68,67,29.93,29.90,14,10,0,0.00
2012-12-7,72,71,70,63,62,61,77,75,73,29.90,29.83,11,9,0,0.00
2012-12-8,69,65,60,64,58,55,95,80,64,29.96,29.88,16,12,0,0.00
2012-12-9,61,60,59,58,55,53,94,83,78,30.11,29.98,7,5,0,0.00
2012-12-10,79,65,59,75,59,54,95,81,54,30.11,29.96,21,12,0,0.00
2012-12-11,72,70,64,71,62,55,100,79,60,29.99,29.90,21,14,0,0.00
2012-12-12,79,74,71,71,67,65,100,78,62,29.99,29.89,21,12,0,0.00
2012-12-13,86,80,75,80,60,-100,95,68,47,30.02,29.88,15,7,0,0.00
2012-12-14,83,81,76,82,74,67,98,80,65,29.99,29.87,34,15,0,0.00
2012-12-15,82,80,79,77,72,66,92,77,62,29.96,29.77,28,14,0,0.00
2012-12-16,83,81,77,77,72,67,88,75,60,29.88,29.80,23,11,0,0.00
2012-12-17,81,81,81,74,73,71,80,76,73,29.87,29.85,17,16,0,0.00
2012-12-18,81,80,79,77,74,71,88,82,73,29.86,29.77,38,27,0,0.00
2012-12-19,83,81,81,77,74,68,88,78,66,29.96,29.83,37,32,0,0.00
2012-12-20,81,78,76,74,69,65,84,74,62,30.06,29.92,26,16,0,0.00
2012-12-21,79,76,74,74,67,59,84,74,59,30.19,29.98,41,26,0,0.00
2012-12-22,76,69,62,68,52,36,82,55,37,30.29,30.12,36,22,0,0.00
2012-12-23,70,69,69,55,54,52,60,57,53,30.18,30.16,14,12,0,0.00
2012-12-24,79,74,70,67,57,48,78,57,42,30.15,29.99,33,22,0,0.00
2012-12-25,82,78,74,80,56,-100,92,68,57,30.03,29.98,17,16,0,0.00
2012-12-26,77,76,72,69,65,54,75,69,54,30.02,29.98,25,22,0,0.00
2012-12-27,75,74,73,70,67,64,83,77,71,30.05,29.96,25,22,0,0.00
2012-12-28,77,75,72,71,67,61,83,74,65,30.12,29.99,21,18,0,0.00
2012-12-29,75,74,73,69,67,66,82,79,78,30.06,30.02,21,18,0,0.00
2012-12-30,69,65,63,51,50,48,65,59,48,30.15,30.08,46,35,0,0.00
2012-12-31,72,71,70,52,51,48,53,49,43,30.21,30.14,33,26,0,0.00
2013-1-1,82,74,70,70,60,54,68,61,52,30.11,29.99,25,21,0,0.00